Time;durP1;ratioP1;P1;durP2;ratioP2;P2;SDS_P1;SDS_P2;PMS_P1;PMS_P2;Temp;Humidity;BMP_temperature;BMP_pressure;BME280_temperature;BME280_humidity;BME280_pressure;Samples;Min_cycle;Max_cycle;Signal;HPM_P1;HPM_P2
2021/12/26 00:01:04;;;;;;;18.38;8.85;;;;;;;;;;5029184;28;20104;-55
2021/12/26 00:03:31;;;;;;;22.15;9.45;;;;;;;;;;5031179;28;20021;-55
2021/12/26 00:05:58;;;;;;;19.65;8.80;;;;;;;;;;5031235;28;20036;-56
2021/12/26 00:08:24;;;;;;;19.23;9.07;;;;;;;;;;5031588;28;20449;-53
2021/12/26 00:10:51;;;;;;;21.30;9.27;;;;;;;;;;5031073;28;20022;-56
2021/12/26 00:13:17;;;;;;;17.83;8.43;;;;;;;;;;5031652;28;20436;-53
2021/12/26 00:15:44;;;;;;;16.60;7.65;;;;;;;;;;5034449;28;20468;-51
2021/12/26 00:18:10;;;;;;;16.92;8.30;;;;;;;;;;5035035;28;20021;-55
2021/12/26 00:20:36;;;;;;;21.30;7.90;;;;;;;;;;5034051;28;20105;-55
2021/12/26 00:23:02;;;;;;;13.68;6.90;;;;;;;;;;5033762;28;20017;-53
2021/12/26 00:25:28;;;;;;;14.93;8.55;;;;;;;;;;5030995;28;20025;-54
2021/12/26 00:27:54;;;;;;;16.20;7.22;;;;;;;;;;5032030;28;20104;-56
2021/12/26 00:30:21;;;;;;;19.35;8.25;;;;;;;;;;5029494;28;20022;-55
2021/12/26 00:32:47;;;;;;;15.73;8.10;;;;;;;;;;5034620;28;20447;-53
2021/12/26 00:35:14;;;;;;;17.75;8.38;;;;;;;;;;5034682;28;20120;-56
2021/12/26 00:37:41;;;;;;;17.50;8.43;;;;;;;;;;5034286;28;20051;-50
2021/12/26 00:40:08;;;;;;;19.00;8.15;;;;;;;;;;5033642;28;20108;-54
2021/12/26 00:42:34;;;;;;;18.65;8.77;;;;;;;;;;5030531;28;20037;-54
2021/12/26 00:45:02;;;;;;;13.68;7.40;;;;;;;;;;5029646;28;20053;-53
2021/12/26 00:47:29;;;;;;;16.73;7.97;;;;;;;;;;5031160;28;20061;-55
2021/12/26 00:49:56;;;;;;;18.67;7.93;;;;;;;;;;5030226;28;20037;-55
2021/12/26 00:52:22;;;;;;;15.32;7.95;;;;;;;;;;5029451;28;20574;-53
2021/12/26 00:54:49;;;;;;;18.25;8.68;;;;;;;;;;5034727;28;20037;-52
2021/12/26 00:57:15;;;;;;;23.02;8.60;;;;;;;;;;5030297;28;20108;-50
2021/12/26 00:59:41;;;;;;;21.20;9.15;;;;;;;;;;5033978;28;20373;-50
2021/12/26 01:02:07;;;;;;;17.60;8.07;;;;;;;;;;5023866;28;20117;-51
2021/12/26 01:04:32;;;;;;;19.02;8.23;;;;;;;;;;5034381;28;20112;-55
2021/12/26 01:06:59;;;;;;;20.67;7.82;;;;;;;;;;5030287;28;20029;-53
2021/12/26 01:09:28;;;;;;;16.60;8.00;;;;;;;;;;5031486;28;20087;-51
2021/12/26 01:11:59;;;;;;;21.50;9.07;;;;;;;;;;5030172;28;20466;-54
2021/12/26 01:14:29;;;;;;;20.85;8.93;;;;;;;;;;5026476;28;20030;-54
2021/12/26 01:17:04;;;;;;;21.27;9.57;;;;;;;;;;5030144;28;20091;-55
2021/12/26 01:19:39;;;;;;;21.45;10.43;;;;;;;;;;5030882;28;20029;-55
2021/12/26 01:22:06;;;;;;;27.55;10.35;;;;;;;;;;5033478;28;20037;-56
2021/12/26 01:24:32;;;;;;;21.42;10.68;;;;;;;;;;5033622;28;20030;-55
2021/12/26 01:26:58;;;;;;;22.15;9.82;;;;;;;;;;5033815;28;20440;-54
2021/12/26 01:29:24;;;;;;;18.63;8.77;;;;;;;;;;5030848;28;20033;-56
2021/12/26 01:31:50;;;;;;;15.90;7.97;;;;;;;;;;5033569;28;20468;-53
2021/12/26 01:34:16;;;;;;;16.20;7.97;;;;;;;;;;5031641;28;20017;-54
2021/12/26 01:36:41;;;;;;;19.77;8.20;;;;;;;;;;5030282;28;20068;-53
2021/12/26 01:39:09;;;;;;;15.05;7.15;;;;;;;;;;5035594;28;20040;-51
2021/12/26 01:41:39;;;;;;;12.35;6.63;;;;;;;;;;5028021;28;20026;-51
2021/12/26 01:44:08;;;;;;;15.52;6.95;;;;;;;;;;5043381;28;20511;-52
2021/12/26 01:46:35;;;;;;;16.88;7.38;;;;;;;;;;5024532;28;20036;-51
2021/12/26 01:49:08;;;;;;;15.60;7.72;;;;;;;;;;5034202;28;20025;-53
2021/12/26 01:51:35;;;;;;;14.15;7.45;;;;;;;;;;5021369;28;20041;-51
2021/12/26 01:54:06;;;;;;;18.70;7.88;;;;;;;;;;5021176;28;20039;-51
2021/12/26 01:56:33;;;;;;;13.43;6.25;;;;;;;;;;5031810;28;20482;-53
2021/12/26 01:58:59;;;;;;;14.40;6.90;;;;;;;;;;5033632;28;20025;-53
2021/12/26 02:01:25;;;;;;;15.68;7.38;;;;;;;;;;5032630;28;20022;-56
2021/12/26 02:03:51;;;;;;;17.33;7.30;;;;;;;;;;5026004;28;20038;-53
2021/12/26 02:06:18;;;;;;;16.95;7.28;;;;;;;;;;5022521;28;20030;-54
2021/12/26 02:08:44;;;;;;;15.20;7.00;;;;;;;;;;5031903;28;20075;-54
2021/12/26 02:11:10;;;;;;;15.85;8.55;;;;;;;;;;5028533;28;20037;-54
2021/12/26 02:13:40;;;;;;;17.27;7.70;;;;;;;;;;5031442;28;20029;-52
2021/12/26 02:16:06;;;;;;;19.27;8.10;;;;;;;;;;5029068;28;20504;-50
2021/12/26 02:18:32;;;;;;;18.30;8.02;;;;;;;;;;5033097;28;20144;-52
2021/12/26 02:21:14;;;;;;;17.70;8.15;;;;;;;;;;5029408;28;20034;-56
2021/12/26 02:23:49;;;;;;;14.57;7.13;;;;;;;;;;5031218;28;20056;-51
2021/12/26 02:28:46;;;;;;;14.95;7.47;;;;;;;;;;5032718;28;20120;-53
2021/12/26 02:31:12;;;;;;;14.35;7.55;;;;;;;;;;5031268;28;20033;-55
2021/12/26 02:33:39;;;;;;;18.17;7.60;;;;;;;;;;5030201;28;20033;-51
2021/12/26 02:36:06;;;;;;;18.50;8.52;;;;;;;;;;5028178;28;20049;-52
2021/12/26 02:38:33;;;;;;;19.27;8.68;;;;;;;;;;5030501;28;20021;-53
2021/12/26 02:40:59;;;;;;;15.32;7.55;;;;;;;;;;5025275;28;20060;-56
2021/12/26 02:43:26;;;;;;;20.58;8.10;;;;;;;;;;5028810;28;20113;-55
2021/12/26 02:45:52;;;;;;;17.13;7.15;;;;;;;;;;5029544;28;20437;-55
2021/12/26 02:48:18;;;;;;;15.45;6.68;;;;;;;;;;5030612;28;20481;-55
2021/12/26 02:50:45;;;;;;;18.08;8.02;;;;;;;;;;5029726;28;20029;-54
2021/12/26 02:53:12;;;;;;;14.77;7.47;;;;;;;;;;5019752;28;20131;-52
2021/12/26 02:55:38;;;;;;;12.73;7.30;;;;;;;;;;5030908;28;20111;-55
2021/12/26 02:58:06;;;;;;;15.65;7.60;;;;;;;;;;5033002;28;20157;-52
2021/12/26 03:00:33;;;;;;;14.50;7.05;;;;;;;;;;5033876;28;20030;-54
2021/12/26 03:03:01;;;;;;;16.85;7.35;;;;;;;;;;5035453;28;20358;-55
2021/12/26 03:05:28;;;;;;;15.93;7.32;;;;;;;;;;5035153;28;20025;-54
2021/12/26 03:07:54;;;;;;;16.23;8.23;;;;;;;;;;5037291;28;20024;-51
2021/12/26 03:10:22;;;;;;;14.68;7.50;;;;;;;;;;5036094;28;20433;-52
2021/12/26 03:12:59;;;;;;;17.80;8.30;;;;;;;;;;5038113;28;20520;-53
2021/12/26 03:15:26;;;;;;;18.63;7.75;;;;;;;;;;5033175;28;20112;-53
2021/12/26 03:17:55;;;;;;;17.80;7.88;;;;;;;;;;5037639;28;20075;-55
2021/12/26 03:20:22;;;;;;;13.50;7.00;;;;;;;;;;5038400;28;20021;-56
2021/12/26 03:22:48;;;;;;;19.90;7.32;;;;;;;;;;5033951;28;20111;-53
2021/12/26 03:25:15;;;;;;;15.13;7.53;;;;;;;;;;5029780;28;20038;-56
2021/12/26 03:27:41;;;;;;;14.35;7.25;;;;;;;;;;5034439;28;20088;-53
2021/12/26 03:30:11;;;;;;;13.07;7.38;;;;;;;;;;5034345;28;20031;-56
2021/12/26 03:32:37;;;;;;;16.65;7.72;;;;;;;;;;5032764;28;20040;-55
2021/12/26 03:35:03;;;;;;;15.98;8.02;;;;;;;;;;5034429;28;20537;-54
2021/12/26 03:37:29;;;;;;;15.20;7.05;;;;;;;;;;5026452;28;20028;-54
2021/12/26 03:39:56;;;;;;;15.57;7.15;;;;;;;;;;5035040;28;20013;-50
2021/12/26 03:42:22;;;;;;;15.70;6.22;;;;;;;;;;5031741;28;20029;-50
2021/12/26 03:44:48;;;;;;;16.58;6.97;;;;;;;;;;5029897;28;20049;-50
2021/12/26 03:47:15;;;;;;;16.92;7.65;;;;;;;;;;5035243;28;20082;-53
2021/12/26 03:49:41;;;;;;;16.92;7.68;;;;;;;;;;5028357;28;20022;-54
2021/12/26 03:52:07;;;;;;;15.40;6.82;;;;;;;;;;5030822;28;20076;-52
2021/12/26 03:54:33;;;;;;;13.05;6.50;;;;;;;;;;5043318;28;20030;-54
2021/12/26 03:57:00;;;;;;;13.98;7.68;;;;;;;;;;5048067;28;20108;-56
2021/12/26 03:59:27;;;;;;;14.00;7.13;;;;;;;;;;5044184;28;20116;-55
2021/12/26 04:01:53;;;;;;;10.88;6.88;;;;;;;;;;5041275;28;20033;-55
2021/12/26 04:04:19;;;;;;;14.25;7.07;;;;;;;;;;5034784;28;20030;-51
2021/12/26 04:06:45;;;;;;;14.75;6.82;;;;;;;;;;5034146;28;20037;-53
2021/12/26 04:09:11;;;;;;;16.05;7.38;;;;;;;;;;5043323;28;20029;-51
2021/12/26 04:11:41;;;;;;;15.32;7.35;;;;;;;;;;5040581;28;20036;-55
2021/12/26 04:14:07;;;;;;;17.20;7.47;;;;;;;;;;5033628;28;20373;-54
2021/12/26 04:16:33;;;;;;;15.18;6.60;;;;;;;;;;5034656;28;20056;-52
2021/12/26 04:18:59;;;;;;;17.42;7.65;;;;;;;;;;5036227;28;20043;-53
2021/12/26 04:21:25;;;;;;;14.23;6.28;;;;;;;;;;5034413;28;20104;-53
2021/12/26 04:23:51;;;;;;;11.45;7.05;;;;;;;;;;5038303;28;20028;-51
2021/12/26 04:26:17;;;;;;;15.63;7.28;;;;;;;;;;5032786;28;20505;-52
2021/12/26 04:28:43;;;;;;;11.13;6.85;;;;;;;;;;5039030;28;20036;-50
2021/12/26 04:31:09;;;;;;;16.00;6.93;;;;;;;;;;5030079;28;20038;-51
2021/12/26 04:33:35;;;;;;;14.07;6.20;;;;;;;;;;5041006;28;20043;-55
2021/12/26 04:36:01;;;;;;;10.38;6.13;;;;;;;;;;5036282;28;20458;-54
2021/12/26 04:38:27;;;;;;;13.82;6.70;;;;;;;;;;5025089;28;20053;-53
2021/12/26 04:40:53;;;;;;;11.95;6.85;;;;;;;;;;5027320;28;20029;-55
2021/12/26 04:43:21;;;;;;;10.38;6.07;;;;;;;;;;5031729;28;20032;-52
2021/12/26 04:45:48;;;;;;;13.73;6.45;;;;;;;;;;5034063;28;20021;-54
2021/12/26 04:48:14;;;;;;;14.20;6.78;;;;;;;;;;5032155;28;20091;-55
2021/12/26 04:50:40;;;;;;;14.35;6.97;;;;;;;;;;5021761;28;20512;-55
2021/12/26 04:53:06;;;;;;;11.25;6.35;;;;;;;;;;5041410;28;20017;-52
2021/12/26 04:55:32;;;;;;;13.75;6.22;;;;;;;;;;5044240;28;20101;-55
2021/12/26 04:57:58;;;;;;;15.93;6.40;;;;;;;;;;5035477;28;20025;-52
2021/12/26 05:00:27;;;;;;;14.27;6.43;;;;;;;;;;5030596;28;20030;-51
2021/12/26 05:02:53;;;;;;;12.10;5.82;;;;;;;;;;5034652;28;20488;-54
2021/12/26 05:05:19;;;;;;;11.73;5.88;;;;;;;;;;5033094;28;20029;-51
2021/12/26 05:07:46;;;;;;;15.85;6.75;;;;;;;;;;5020650;28;20040;-56
2021/12/26 05:10:14;;;;;;;14.38;6.40;;;;;;;;;;5036220;28;20496;-55
2021/12/26 05:12:40;;;;;;;15.77;6.80;;;;;;;;;;5028547;28;20528;-55
2021/12/26 05:15:07;;;;;;;22.90;6.72;;;;;;;;;;5028246;28;20104;-55
2021/12/26 05:17:33;;;;;;;14.45;6.95;;;;;;;;;;5031627;28;20109;-55
2021/12/26 05:20:00;;;;;;;13.55;6.13;;;;;;;;;;5031234;28;20013;-55
2021/12/26 05:22:26;;;;;;;10.73;5.70;;;;;;;;;;5032678;28;20087;-54
2021/12/26 05:24:52;;;;;;;13.73;6.25;;;;;;;;;;5038598;28;20043;-53
2021/12/26 05:27:18;;;;;;;13.07;6.25;;;;;;;;;;5036818;28;20029;-53
2021/12/26 05:29:44;;;;;;;13.18;6.22;;;;;;;;;;5040501;28;20104;-55
2021/12/26 05:32:10;;;;;;;11.55;6.22;;;;;;;;;;5031476;28;20421;-52
2021/12/26 05:34:36;;;;;;;14.07;6.15;;;;;;;;;;5031288;28;20086;-53
2021/12/26 05:37:02;;;;;;;12.43;5.65;;;;;;;;;;5031119;28;20034;-51
2021/12/26 05:39:28;;;;;;;11.30;5.80;;;;;;;;;;5024827;28;20084;-50
2021/12/26 05:41:54;;;;;;;12.93;5.80;;;;;;;;;;5023499;28;20432;-50
2021/12/26 05:44:20;;;;;;;13.18;6.13;;;;;;;;;;5026095;28;20041;-55
2021/12/26 05:46:46;;;;;;;12.57;6.28;;;;;;;;;;5023462;28;20549;-53
2021/12/26 05:49:12;;;;;;;10.45;5.78;;;;;;;;;;5016895;28;20109;-54
2021/12/26 05:51:39;;;;;;;;;;;;;;;;;;5033487;28;20085;-55
2021/12/26 05:54:05;;;;;;;;;;;;;;;;;;5048574;28;20284;-56
2021/12/26 05:56:31;;;;;;;;;;;;;;;;;;5041652;28;19954;-54
2021/12/26 05:58:57;;;;;;;;;;;;;;;;;;5038335;28;19908;-50
2021/12/26 06:01:23;;;;;;;;;;;;;;;;;;5022543;28;20409;-55
2021/12/26 06:03:49;;;;;;;;;;;;;;;;;;5014685;28;19909;-52
2021/12/26 06:06:15;;;;;;;;;;;;;;;;;;5019904;28;21377;-53
2021/12/26 06:08:41;;;;;;;;;;;;;;;;;;5027692;28;19913;-54
2021/12/26 06:11:07;;;;;;;;;;;;;;;;;;5022257;28;19956;-52
2021/12/26 06:13:33;;;;;;;;;;;;;;;;;;5033386;28;19996;-50
2021/12/26 06:15:59;;;;;;;;;;;;;;;;;;5030782;28;19971;-54
2021/12/26 06:18:25;;;;;;;;;;;;;;;;;;5027321;28;19909;-55
2021/12/26 06:20:51;;;;;;;;;;;;;;;;;;5028751;28;20498;-54
2021/12/26 06:23:17;;;;;;;;;;;;;;;;;;5021101;28;19992;-54
2021/12/26 06:25:43;;;;;;;;;;;;;;;;;;5024266;28;19997;-53
2021/12/26 06:28:09;;;;;;;;;;;;;;;;;;5028433;28;20360;-51
2021/12/26 06:30:35;;;;;;;;;;;;;;;;;;5024125;28;19909;-53
2021/12/26 06:33:00;;;;;;;;;;;;;;;;;;5024408;28;19913;-54
2021/12/26 06:35:26;;;;;;;;;;;;;;;;;;5027659;28;19965;-51
2021/12/26 06:37:52;;;;;;;;;;;;;;;;;;5032783;28;19962;-52
2021/12/26 06:40:19;;;;;;;;;;;;;;;;;;5023185;28;19913;-51
2021/12/26 06:42:46;;;;;;;;;;;;;;;;;;5028368;28;19917;-54
2021/12/26 06:45:14;;;;;;;;;;;;;;;;;;5031399;28;19917;-52
2021/12/26 06:47:40;;;;;;;;;;;;;;;;;;5026301;28;19905;-52
2021/12/26 06:50:06;;;;;;;;;;;;;;;;;;5023363;28;19998;-51
2021/12/26 06:52:32;;;;;;;;;;;;;;;;;;5021502;28;19920;-56
2021/12/26 06:54:58;;;;;;;;;;;;;;;;;;5029602;28;20136;-53
2021/12/26 06:57:24;;;;;;;;;;;;;;;;;;5029454;28;19940;-55
2021/12/26 06:59:50;;;;;;;;;;;;;;;;;;5020060;28;19908;-54
2021/12/26 07:02:15;;;;;;;;;;;;;;;;;;5028401;28;19915;-52
2021/12/26 07:04:41;;;;;;;;;;;;;;;;;;5026679;28;19965;-54
2021/12/26 07:07:07;;;;;;;;;;;;;;;;;;5027224;28;19920;-55
2021/12/26 07:09:33;;;;;;;;;;;;;;;;;;5029367;28;19923;-56
2021/12/26 07:11:59;;;;;;;;;;;;;;;;;;5023687;28;19912;-54
2021/12/26 07:14:25;;;;;;;;;;;;;;;;;;5030163;28;19909;-51
2021/12/26 07:16:51;;;;;;;;;;;;;;;;;;5028959;28;19915;-51
2021/12/26 07:19:17;;;;;;;;;;;;;;;;;;5025123;28;20581;-51
2021/12/26 07:21:43;;;;;;;;;;;;;;;;;;5024084;28;20337;-52
2021/12/26 07:24:09;;;;;;;;;;;;;;;;;;5031500;28;19940;-50
2021/12/26 07:26:35;;;;;;;;;;;;;;;;;;5025644;28;19908;-56
2021/12/26 07:29:01;;;;;;;;;;;;;;;;;;5024389;28;19912;-54
2021/12/26 07:31:28;;;;;;;;;;;;;;;;;;5024145;28;20022;-52
2021/12/26 07:33:54;;;;;;;;;;;;;;;;;;5031501;28;19939;-55
2021/12/26 07:36:20;;;;;;;;;;;;;;;;;;5023663;28;19947;-54
2021/12/26 07:38:46;;;;;;;;;;;;;;;;;;5032277;28;19959;-54
2021/12/26 07:41:12;;;;;;;;;;;;;;;;;;5031363;28;19955;-54
2021/12/26 07:43:38;;;;;;;;;;;;;;;;;;5022013;28;20278;-54
2021/12/26 07:46:04;;;;;;;;;;;;;;;;;;5032367;28;20306;-52
2021/12/26 07:48:30;;;;;;;;;;;;;;;;;;5027981;28;19947;-54
2021/12/26 07:50:56;;;;;;;;;;;;;;;;;;5024283;28;19964;-53
2021/12/26 07:53:22;;;;;;;;;;;;;;;;;;5019720;28;20365;-53
2021/12/26 07:55:48;;;;;;;;;;;;;;;;;;5027910;28;19923;-54
2021/12/26 07:58:15;;;;;;;;;;;;;;;;;;5019962;28;19917;-52
2021/12/26 08:00:41;;;;;;;;;;;;;;;;;;5030375;28;19914;-55
2021/12/26 08:03:07;;;;;;;;;;;;;;;;;;5030774;28;19966;-55
2021/12/26 08:05:33;;;;;;;;;;;;;;;;;;5030790;28;19962;-53
2021/12/26 08:07:59;;;;;;;;;;;;;;;;;;5027459;28;19948;-52
2021/12/26 08:10:25;;;;;;;;;;;;;;;;;;5030113;28;19915;-52
2021/12/26 08:12:51;;;;;;;;;;;;;;;;;;5029241;28;19912;-52
2021/12/26 08:15:17;;;;;;;;;;;;;;;;;;5029901;28;19917;-54
2021/12/26 08:17:43;;;;;;;;;;;;;;;;;;5021947;28;19974;-53
2021/12/26 08:20:09;;;;;;;;;;;;;;;;;;5025774;28;19945;-52
2021/12/26 08:22:35;;;;;;;;;;;;;;;;;;5024223;28;19948;-53
2021/12/26 08:25:01;;;;;;;;;;;;;;;;;;5027901;28;20367;-50
2021/12/26 08:27:26;;;;;;;;;;;;;;;;;;5028993;28;19909;-52
2021/12/26 08:29:52;;;;;;;;;;;;;;;;;;5028323;28;19952;-53
2021/12/26 08:32:19;;;;;;;;;;;;;;;;;;5022949;28;19967;-53
2021/12/26 08:34:45;;;;;;;;;;;;;;;;;;5028622;28;19917;-56
2021/12/26 08:37:11;;;;;;;;;;;;;;;;;;5034391;28;20265;-56
2021/12/26 08:39:37;;;;;;;;;;;;;;;;;;5035280;28;19961;-55
2021/12/26 08:42:03;;;;;;;;;;;;;;;;;;5029697;28;19913;-55
2021/12/26 08:44:29;;;;;;;;;;;;;;;;;;5031050;28;19917;-53
2021/12/26 08:46:54;;;;;;;;;;;;;;;;;;5033257;28;19908;-56
2021/12/26 08:49:20;;;;;;;;;;;;;;;;;;5035244;28;19916;-55
2021/12/26 08:51:46;;;;;;;;;;;;;;;;;;5029460;28;19964;-53
2021/12/26 08:54:12;;;;;;;;;;;;;;;;;;5032791;28;19915;-53
2021/12/26 08:56:38;;;;;;;;;;;;;;;;;;5033812;28;19912;-53
2021/12/26 08:59:04;;;;;;;;;;;;;;;;;;5030796;28;19960;-52
2021/12/26 09:01:30;;;;;;;;;;;;;;;;;;5030142;28;19971;-51
2021/12/26 09:03:56;;;;;;;;;;;;;;;;;;5030087;28;20357;-54
2021/12/26 09:06:22;;;;;;;;;;;;;;;;;;5027308;28;20306;-51
2021/12/26 09:08:48;;;;;;;;;;;;;;;;;;5032552;28;19999;-56
2021/12/26 09:11:15;;;;;;;;;;;;;;;;;;5027587;28;19955;-55
2021/12/26 09:13:41;;;;;;;;;;;;;;;;;;5034631;28;19920;-56
2021/12/26 09:16:07;;;;;;;;;;;;;;;;;;5031909;28;19944;-54
2021/12/26 09:18:33;;;;;;;;;;;;;;;;;;5032369;28;19916;-54
2021/12/26 09:20:59;;;;;;;;;;;;;;;;;;5031205;28;19909;-56
2021/12/26 09:23:25;;;;;;;;;;;;;;;;;;5028314;28;19948;-55
2021/12/26 09:25:51;;;;;;;;;;;;;;;;;;5029989;28;20007;-53
2021/12/26 09:28:17;;;;;;;;;;;;;;;;;;5034145;28;20292;-52
2021/12/26 09:30:43;;;;;;;;;;;;;;;;;;5021651;28;19971;-52
2021/12/26 09:33:08;;;;;;;;;;;;;;;;;;5027558;28;19917;-54
2021/12/26 09:35:34;;;;;;;;;;;;;;;;;;5029267;28;19921;-55
2021/12/26 09:38:01;;;;;;;;;;;;;;;;;;5027024;28;20023;-56
2021/12/26 09:40:27;;;;;;;;;;;;;;;;;;5030781;28;19916;-53
2021/12/26 09:42:53;;;;;;;;;;;;;;;;;;5030526;28;20357;-55
2021/12/26 09:45:19;;;;;;;;;;;;;;;;;;5031436;28;19915;-55
2021/12/26 09:47:45;;;;;;;;;;;;;;;;;;5030306;28;19955;-56
2021/12/26 09:50:11;;;;;;;;;;;;;;;;;;5029734;28;19953;-55
2021/12/26 09:52:37;;;;;;;;;;;;;;;;;;5020639;28;19964;-54
2021/12/26 09:55:03;;;;;;;;;;;;;;;;;;5027351;28;20389;-52
2021/12/26 09:57:29;;;;;;;;;;;;;;;;;;5026347;28;19956;-54
2021/12/26 09:59:55;;;;;;;;;;;;;;;;;;5026018;28;19917;-54
2021/12/26 10:02:21;;;;;;;;;;;;;;;;;;5032784;28;20331;-56
2021/12/26 10:04:47;;;;;;;;;;;;;;;;;;5030014;28;19974;-54
2021/12/26 10:07:12;;;;;;;;;;;;;;;;;;5032989;28;20396;-53
2021/12/26 10:09:38;;;;;;;;;;;;;;;;;;5032628;28;19916;-54
2021/12/26 10:12:04;;;;;;;;;;;;;;;;;;5028598;28;19913;-55
2021/12/26 10:14:31;;;;;;;;;;;;;;;;;;5030777;28;19971;-52
2021/12/26 10:16:57;;;;;;;;;;;;;;;;;;5031843;28;19909;-57
2021/12/26 10:19:23;;;;;;;;;;;;;;;;;;5031352;28;20332;-55
2021/12/26 10:21:49;;;;;;;;;;;;;;;;;;5032694;28;19944;-56
2021/12/26 10:24:14;;;;;;;;;;;;;;;;;;5028047;28;19935;-55
2021/12/26 10:26:40;;;;;;;;;;;;;;;;;;5027543;28;19987;-52
2021/12/26 10:29:06;;;;;;;;;;;;;;;;;;5032050;28;19909;-54
2021/12/26 10:31:32;;;;;;;;;;;;;;;;;;5032069;28;19940;-55
2021/12/26 10:33:58;;;;;;;;;;;;;;;;;;5029190;28;19995;-56
2021/12/26 10:36:24;;;;;;;;;;;;;;;;;;5027690;28;20554;-55
2021/12/26 10:38:50;;;;;;;;;;;;;;;;;;5030833;28;19913;-54
2021/12/26 10:41:16;;;;;;;;;;;;;;;;;;5029822;28;19909;-54
2021/12/26 10:43:42;;;;;;;;;;;;;;;;;;5042298;28;19967;-55
2021/12/26 10:46:07;;;;;;;;;;;;;;;;;;5032371;28;19912;-54
2021/12/26 10:48:33;;;;;;;;;;;;;;;;;;5027885;28;19909;-53
2021/12/26 10:50:59;;;;;;;;;;;;;;;;;;5030249;28;19947;-56
2021/12/26 10:53:25;;;;;;;;;;;;;;;;;;5031329;28;20349;-56
2021/12/26 10:55:51;;;;;;;;;;;;;;;;;;5030593;28;19913;-56
2021/12/26 10:58:18;;;;;;;;;;;;;;;;;;5027748;28;19913;-56
2021/12/26 11:00:44;;;;;;;;;;;;;;;;;;5032583;28;20230;-56
2021/12/26 11:03:10;;;;;;;;;;;;;;;;;;5029859;28;19955;-53
2021/12/26 11:05:37;;;;;;;;;;;;;;;;;;5023165;28;19996;-51
2021/12/26 11:08:03;;;;;;;;;;;;;;;;;;5021072;28;20305;-56
2021/12/26 11:10:29;;;;;;;;;;;;;;;;;;5032251;28;19963;-51
2021/12/26 11:12:55;;;;;;;;;;;;;;;;;;5027726;28;19951;-56
2021/12/26 11:15:21;;;;;;;;;;;;;;;;;;5030919;28;19908;-56
2021/12/26 11:17:50;;;;;;;14.00;6.75;;;;;;;;;;5028580;28;19916;-52
2021/12/26 11:20:21;;;;;;;13.57;6.50;;;;;;;;;;5023023;28;21578;-53
2021/12/26 11:22:47;;;;;;;16.90;7.55;;;;;;;;;;5023803;28;20037;-56
2021/12/26 11:25:13;;;;;;;18.27;8.65;;;;;;;;;;5031263;28;20115;-58
2021/12/26 11:27:39;;;;;;;21.75;9.45;;;;;;;;;;5031297;28;20030;-54
2021/12/26 11:30:07;;;;;;;24.75;9.90;;;;;;;;;;5028924;28;20057;-58
2021/12/26 11:32:34;;;;;;;23.42;9.85;;;;;;;;;;5029358;28;20045;-54
2021/12/26 11:35:00;;;;;;;20.98;9.27;;;;;;;;;;5021190;28;20099;-54
2021/12/26 11:37:27;;;;;;;16.17;7.40;;;;;;;;;;5031662;28;20051;-56
2021/12/26 11:39:53;;;;;;;19.05;7.20;;;;;;;;;;5036712;28;20544;-54
2021/12/26 11:42:27;;;;;;;17.80;7.40;;;;;;;;;;5030236;28;20030;-54
2021/12/26 11:45:19;;;;;;;12.45;6.05;;;;;;;;;;5024810;28;20033;-56
2021/12/26 11:47:57;;;;;;;14.63;6.72;;;;;;;;;;5030751;28;20486;-56
2021/12/26 11:50:36;;;;;;;15.38;6.55;;;;;;;;;;5030080;28;20394;-56
2021/12/26 11:53:11;;;;;;;14.02;6.35;;;;;;;;;;5020012;28;20049;-54
2021/12/26 11:55:59;;;;;;;14.90;5.57;;;;;;;;;;5019361;28;20113;-56
2021/12/26 11:58:49;;;;;;;13.52;5.75;;;;;;;;;;5028570;28;20029;-56
2021/12/26 12:01:17;;;;;;;12.68;5.75;;;;;;;;;;5029837;28;20032;-55
2021/12/26 12:03:43;;;;;;;13.05;4.88;;;;;;;;;;5029828;28;20347;-55
2021/12/26 12:06:23;;;;;;;10.85;4.95;;;;;;;;;;5029326;28;20025;-56
2021/12/26 12:08:49;;;;;;;10.43;4.28;;;;;;;;;;5021762;28;20043;-54
2021/12/26 12:11:15;;;;;;;9.95;4.45;;;;;;;;;;5034089;28;20029;-55
2021/12/26 12:13:45;;;;;;;10.00;4.20;;;;;;;;;;5035086;28;20112;-55
2021/12/26 12:16:23;;;;;;;8.40;3.75;;;;;;;;;;5033295;28;20040;-51
2021/12/26 12:18:50;;;;;;;7.10;3.75;;;;;;;;;;5030330;28;20041;-56
2021/12/26 12:21:21;;;;;;;10.13;3.83;;;;;;;;;;5032129;28;20052;-55
2021/12/26 12:24:06;;;;;;;6.25;3.15;;;;;;;;;;5023081;28;20061;-53
2021/12/26 12:26:41;;;;;;;7.55;2.95;;;;;;;;;;5034995;28;20100;-52
2021/12/26 12:29:08;;;;;;;5.03;2.70;;;;;;;;;;5030825;28;20033;-54
2021/12/26 12:31:34;;;;;;;6.70;2.47;;;;;;;;;;5033983;28;20041;-56
2021/12/26 12:34:01;;;;;;;4.75;2.40;;;;;;;;;;5031300;28;20109;-55
2021/12/26 12:36:29;;;;;;;6.28;2.55;;;;;;;;;;5033552;28;20042;-55
2021/12/26 12:39:08;;;;;;;6.82;2.60;;;;;;;;;;5034793;28;20025;-54
2021/12/26 12:41:38;;;;;;;6.30;2.35;;;;;;;;;;5021854;28;20036;-51
2021/12/26 12:44:06;;;;;;;4.97;2.80;;;;;;;;;;5030587;28;20044;-52
2021/12/26 12:46:32;;;;;;;6.25;2.60;;;;;;;;;;5030860;28;20025;-52
2021/12/26 12:48:58;;;;;;;;;;;;;;;;;;5034011;28;20025;-57
2021/12/26 12:51:24;;;;;;;;;;;;;;;;;;5033290;28;19948;-57
2021/12/26 12:53:54;;;;;;;6.05;2.70;;;;;;;;;;5030909;28;19913;-57
2021/12/26 12:56:44;;;;;;;6.65;3.10;;;;;;;;;;5023818;28;20503;-57
2021/12/26 12:59:12;;;;;;;15.20;7.80;;;;;;;;;;5031901;28;20037;-56
2021/12/26 13:01:43;;;;;;;7.55;3.28;;;;;;;;;;5027787;28;20035;-57
2021/12/26 13:04:09;;;;;;;16.98;9.57;;;;;;;;;;5032566;28;20029;-57
2021/12/26 13:06:35;;;;;;;7.65;3.10;;;;;;;;;;5022343;28;20435;-54
2021/12/26 13:09:01;;;;;;;6.03;4.75;;;;;;;;;;5024988;28;20032;-55
2021/12/26 13:11:30;;;;;;;5.18;2.80;;;;;;;;;;5031330;28;20108;-57
2021/12/26 13:14:00;;;;;;;7.38;2.72;;;;;;;;;;5026639;28;20129;-57
2021/12/26 13:16:30;;;;;;;5.78;2.92;;;;;;;;;;5032596;28;20486;-57
2021/12/26 13:19:03;;;;;;;6.53;2.63;;;;;;;;;;5031401;28;20426;-53
2021/12/26 13:21:29;;;;;;;5.68;2.92;;;;;;;;;;5034034;28;20426;-55
2021/12/26 13:23:55;;;;;;;6.60;3.92;;;;;;;;;;5025369;28;20828;-53
2021/12/26 13:26:21;;;;;;;6.18;2.80;;;;;;;;;;5028601;28;20408;-54
2021/12/26 13:28:47;;;;;;;4.47;2.30;;;;;;;;;;5025473;28;20887;-56
2021/12/26 13:31:14;;;;;;;6.10;3.33;;;;;;;;;;5027600;28;21340;-56
2021/12/26 13:33:41;;;;;;;7.05;3.05;;;;;;;;;;5031389;28;20391;-57
2021/12/26 13:36:19;;;;;;;5.68;3.13;;;;;;;;;;5031138;28;20454;-56
2021/12/26 13:38:45;;;;;;;5.30;2.67;;;;;;;;;;5031925;28;20391;-57
2021/12/26 13:41:12;;;;;;;6.15;2.90;;;;;;;;;;5030381;28;20415;-57
2021/12/26 13:43:39;;;;;;;6.38;2.70;;;;;;;;;;5031584;28;20395;-57
2021/12/26 13:46:06;;;;;;;7.63;2.65;;;;;;;;;;5031763;28;20780;-55
2021/12/26 13:48:36;;;;;;;5.47;3.00;;;;;;;;;;5028458;28;20454;-57
2021/12/26 13:51:21;;;;;;;4.97;2.40;;;;;;;;;;5020932;28;20491;-53
2021/12/26 13:53:47;;;;;;;6.82;3.78;;;;;;;;;;5024437;28;20444;-56
2021/12/26 13:56:13;;;;;;;6.15;2.90;;;;;;;;;;5023991;28;20393;-55
2021/12/26 13:58:40;;;;;;;5.65;2.70;;;;;;;;;;5027035;28;20486;-56
2021/12/26 14:01:06;;;;;;;7.00;3.40;;;;;;;;;;5031369;28;20391;-55
2021/12/26 14:03:33;;;;;;;5.82;2.67;;;;;;;;;;5031845;28;20877;-53
2021/12/26 14:05:58;;;;;;;4.60;2.45;;;;;;;;;;5032004;28;20804;-54
2021/12/26 14:08:27;;;;;;;6.47;2.58;;;;;;;;;;5031392;28;20478;-55
2021/12/26 14:11:07;;;;;;;5.47;2.45;;;;;;;;;;5029381;28;20391;-57
2021/12/26 14:13:44;;;;;;;5.03;2.45;;;;;;;;;;5021297;28;20461;-55
2021/12/26 14:16:10;;;;;;;5.45;2.65;;;;;;;;;;5026576;28;20389;-57
2021/12/26 14:18:38;;;;;;;5.43;2.43;;;;;;;;;;5030253;28;20394;-55
2021/12/26 14:21:08;;;;;;;6.68;2.83;;;;;;;;;;5024754;28;20399;-52
2021/12/26 14:23:41;;;;;;;5.60;2.58;;;;;;;;;;5028415;28;20427;-55
2021/12/26 14:26:14;;;;;;;6.10;3.15;;;;;;;;;;5024889;28;20401;-56
2021/12/26 14:28:42;;;;;;;5.97;2.77;;;;;;;;;;5023856;28;20416;-57
2021/12/26 14:31:08;;;;;;;5.65;2.63;;;;;;;;;;5029345;28;20410;-57
2021/12/26 14:33:47;;;;;;;6.47;3.00;;;;;;;;;;5027747;28;20399;-58
2021/12/26 14:36:13;;;;;;;6.32;3.15;;;;;;;;;;5025600;28;20435;-56
2021/12/26 14:38:50;;;;;;;5.97;2.80;;;;;;;;;;5037669;28;20478;-57
2021/12/26 14:41:16;;;;;;;5.40;2.72;;;;;;;;;;5026300;28;20494;-55
2021/12/26 14:43:42;;;;;;;7.93;3.03;;;;;;;;;;5031371;28;20554;-57
2021/12/26 14:46:08;;;;;;;5.22;2.63;;;;;;;;;;5027622;28;20470;-56
2021/12/26 14:48:45;;;;;;;6.57;3.00;;;;;;;;;;5025108;28;20828;-54
2021/12/26 14:51:19;;;;;;;5.75;2.63;;;;;;;;;;5029039;28;20403;-57
2021/12/26 14:53:56;;;;;;;4.53;2.80;;;;;;;;;;5031009;28;20383;-56
2021/12/26 14:56:22;;;;;;;7.22;3.00;;;;;;;;;;5030016;28;20379;-57
2021/12/26 14:58:50;;;;;;;5.70;2.78;;;;;;;;;;5030884;28;20434;-54
2021/12/26 15:01:23;;;;;;;6.38;2.60;;;;;;;;;;5029885;28;20510;-55
2021/12/26 15:03:49;;;;;;;6.33;3.00;;;;;;;;;;5027584;28;20863;-56
2021/12/26 15:06:15;;;;;;;6.10;2.78;;;;;;;;;;5028265;28;20434;-56
2021/12/26 15:08:41;;;;;;;6.70;3.35;;;;;;;;;;5029070;28;20422;-54
2021/12/26 15:11:07;;;;;;;6.97;2.70;;;;;;;;;;5025060;28;20391;-56
2021/12/26 15:13:41;;;;;;;5.88;3.20;;;;;;;;;;5028043;28;20414;-55
2021/12/26 15:16:07;;;;;;;5.28;2.65;;;;;;;;;;5025403;28;20482;-57
2021/12/26 15:18:34;;;;;;;7.65;3.25;;;;;;;;;;5031020;28;20383;-57
2021/12/26 15:21:18;;;;;;;7.57;3.03;;;;;;;;;;5028499;28;20430;-57